createdAt,value
2023-05-06T00:00:17.625Z,51.11
2023-05-06T00:03:43.229Z,51.25
2023-05-06T00:06:47.197Z,50.99
2023-05-06T00:09:51.064Z,50.77
2023-05-06T00:12:54.606Z,50.94
2023-05-06T00:15:58.658Z,51.75
2023-05-06T00:19:04.267Z,51.73
2023-05-06T00:22:07.946Z,51.39
2023-05-06T00:25:11.980Z,51.85
2023-05-06T00:28:15.910Z,51.81
2023-05-06T00:31:19.459Z,51.94
2023-05-06T00:34:24.660Z,51.91
2023-05-06T00:37:28.180Z,51.70
2023-05-06T00:40:32.321Z,52.41
2023-05-06T00:43:35.772Z,52.41
2023-05-06T00:46:40.427Z,52.45
2023-05-06T00:49:48.104Z,52.85
2023-05-06T00:52:52.993Z,52.88
2023-05-06T00:55:57.360Z,53.00
2023-05-06T00:59:02.341Z,52.70
2023-05-06T01:02:06.123Z,52.82
2023-05-06T01:05:12.521Z,53.35
2023-05-06T01:08:26.380Z,53.37
2023-05-06T01:11:42.320Z,53.84
2023-05-06T01:15:00.970Z,52.73
2023-05-06T01:18:12.798Z,53.62
2023-05-06T01:21:22.216Z,53.37
2023-05-06T01:24:38.826Z,55.57
2023-05-06T01:27:42.319Z,53.55
2023-05-06T01:31:00.954Z,54.92
2023-05-06T01:34:18.788Z,54.63
2023-05-06T01:37:33.000Z,53.81
2023-05-06T01:40:39.788Z,54.23
2023-05-06T01:43:48.133Z,54.56
2023-05-06T01:46:55.016Z,55.11
2023-05-06T01:50:00.408Z,54.79
2023-05-06T01:53:04.987Z,54.50
2023-05-06T01:56:10.574Z,54.67
2023-05-06T01:59:14.969Z,54.47
2023-05-06T02:02:18.811Z,54.92
2023-05-06T02:05:22.242Z,54.57
2023-05-06T02:08:30.655Z,54.92
2023-05-06T02:11:35.517Z,54.89
2023-05-06T02:14:42.916Z,54.58
2023-05-06T02:17:46.569Z,55.04
2023-05-06T02:20:50.406Z,55.13
2023-05-06T02:23:53.861Z,55.20
2023-05-06T02:26:59.136Z,55.68
2023-05-06T02:30:03.602Z,55.25
2023-05-06T02:33:07.495Z,54.92
2023-05-06T02:36:11.452Z,54.79
2023-05-06T02:39:15.454Z,54.99
2023-05-06T02:42:21.285Z,55.31
2023-05-06T02:45:25.122Z,55.31
2023-05-06T02:48:29.580Z,55.03
2023-05-06T02:51:34.136Z,55.44
2023-05-06T02:54:37.562Z,54.95
2023-05-06T02:57:42.923Z,55.09
2023-05-06T03:00:46.543Z,55.24
2023-05-06T03:03:50.823Z,55.26
2023-05-06T03:06:54.306Z,54.93
2023-05-06T03:09:58.159Z,55.30
2023-05-06T03:13:03.161Z,55.58
2023-05-06T03:16:13.469Z,55.31
2023-05-06T03:19:19.324Z,55.50
2023-05-06T03:22:23.189Z,55.51
2023-05-06T03:25:26.978Z,55.55
2023-05-06T03:28:33.451Z,55.84
2023-05-06T03:31:39.297Z,55.78
2023-05-06T03:34:43.417Z,55.74
2023-05-06T03:37:50.237Z,56.19
2023-05-06T03:40:54.889Z,55.96
2023-05-06T03:44:00.026Z,56.31
2023-05-06T03:47:05.009Z,55.92
2023-05-06T03:50:11.415Z,56.20
2023-05-06T03:53:17.203Z,56.23
2023-05-06T03:56:23.331Z,56.54
2023-05-06T03:59:31.014Z,56.28
2023-05-06T04:02:36.823Z,56.82
2023-05-06T04:05:41.686Z,56.89
2023-05-06T04:08:46.805Z,56.29
2023-05-06T04:11:51.415Z,56.20
2023-05-06T04:14:56.965Z,55.92
2023-05-06T04:18:01.511Z,56.50
2023-05-06T04:21:06.067Z,56.51
2023-05-06T04:24:13.762Z,56.35
2023-05-06T04:27:17.851Z,56.16
2023-05-06T04:30:24.544Z,56.46
2023-05-06T04:33:28.413Z,55.93
2023-05-06T04:36:35.377Z,56.81
2023-05-06T04:39:50.285Z,56.49
2023-05-06T04:42:54.596Z,56.15
2023-05-06T04:46:03.698Z,55.78
2023-05-06T04:49:12.364Z,55.77
2023-05-06T04:52:16.540Z,55.85
2023-05-06T04:55:20.385Z,55.43
2023-05-06T04:58:28.152Z,55.51
2023-05-06T05:01:34.917Z,55.14
2023-05-06T05:04:38.316Z,55.31
2023-05-06T05:07:42.313Z,55.16
2023-05-06T05:10:46.327Z,55.95
2023-05-06T05:13:56.725Z,55.28
2023-05-06T05:17:02.403Z,56.39
2023-05-06T05:20:08.385Z,54.80
2023-05-06T05:23:13.308Z,55.63
2023-05-06T05:26:17.738Z,55.35
2023-05-06T05:29:23.574Z,55.42
2023-05-06T05:32:29.439Z,55.23
2023-05-06T05:35:33.393Z,55.01
2023-05-06T05:38:37.628Z,54.96
2023-05-06T05:41:41.480Z,54.78
2023-05-06T05:44:45.657Z,54.64
2023-05-06T05:47:50.813Z,55.40
2023-05-06T05:50:55.460Z,55.04
2023-05-06T05:53:59.129Z,55.00
2023-05-06T05:57:04.353Z,55.27
2023-05-06T06:00:12.259Z,54.46
2023-05-06T06:03:24.433Z,53.97
2023-05-06T06:06:28.045Z,54.49
2023-05-06T06:09:32.358Z,54.08
2023-05-06T06:12:36.931Z,53.73
2023-05-06T06:15:42.425Z,53.81
2023-05-06T06:18:47.401Z,53.87
2023-05-06T06:21:51.215Z,53.15
2023-05-06T06:24:54.924Z,53.02
2023-05-06T06:27:58.686Z,53.24
2023-05-06T06:31:02.215Z,52.48
2023-05-06T06:34:08.979Z,53.50
2023-05-06T06:37:13.710Z,53.24
2023-05-06T06:40:17.895Z,52.55
2023-05-06T06:43:21.369Z,52.58
2023-05-06T06:46:32.172Z,52.47
2023-05-06T06:49:37.117Z,52.65
2023-05-06T06:52:40.971Z,52.04
2023-05-06T06:55:44.968Z,51.95
2023-05-06T06:58:49.307Z,51.56
2023-05-06T07:01:53.615Z,51.70
2023-05-06T07:04:58.735Z,51.70
2023-05-06T07:08:02.147Z,51.41
2023-05-06T07:11:06.102Z,51.44
2023-05-06T07:14:09.980Z,51.29
2023-05-06T07:17:13.761Z,51.08
2023-05-06T07:20:18.707Z,51.55
2023-05-06T07:23:22.505Z,51.41
2023-05-06T07:26:26.329Z,51.10
2023-05-06T07:29:30.394Z,50.84
2023-05-06T07:32:33.790Z,51.44
2023-05-06T07:35:39.082Z,52.02
2023-05-06T07:38:42.802Z,51.59
2023-05-06T07:41:47.344Z,51.29
2023-05-06T07:44:50.692Z,51.30
2023-05-06T07:47:54.489Z,51.49
2023-05-06T07:51:00.705Z,51.42
2023-05-06T07:54:04.240Z,50.73
2023-05-06T07:57:07.895Z,50.27
2023-05-06T08:00:12.868Z,51.10
2023-05-06T08:03:17.005Z,50.61
2023-05-06T08:06:22.032Z,50.71
2023-05-06T08:09:25.842Z,50.54
2023-05-06T08:12:29.257Z,50.52
2023-05-06T08:15:33.099Z,50.14
2023-05-06T08:18:36.651Z,50.47
2023-05-06T08:21:41.690Z,50.08
2023-05-06T08:24:45.462Z,50.53
2023-05-06T08:27:49.162Z,50.56
2023-05-06T08:30:52.516Z,50.14
2023-05-06T08:33:56.192Z,50.05
2023-05-06T08:37:01.796Z,50.49
2023-05-06T08:40:14.254Z,51.04
2023-05-06T08:43:22.168Z,50.36
2023-05-06T08:46:27.445Z,50.68
2023-05-06T08:49:31.577Z,51.08
2023-05-06T08:52:37.924Z,51.28
2023-05-06T08:55:43.598Z,51.09
2023-05-06T08:58:47.799Z,51.15
2023-05-06T09:01:52.453Z,51.15
2023-05-06T09:04:57.086Z,51.30
2023-05-06T09:08:02.257Z,51.26
2023-05-06T09:11:22.263Z,51.43
2023-05-06T09:14:26.218Z,51.01
2023-05-06T09:17:33.421Z,51.34
2023-05-06T09:20:41.444Z,51.01
2023-05-06T09:23:46.892Z,51.08
2023-05-06T09:26:55.092Z,51.20
2023-05-06T09:30:04.943Z,51.44
2023-05-06T09:33:10.274Z,50.44
2023-05-06T09:36:14.282Z,50.43
2023-05-06T09:39:19.501Z,50.42
2023-05-06T09:42:25.358Z,50.29
2023-05-06T09:45:30.849Z,50.78
2023-05-06T09:48:34.800Z,50.66
2023-05-06T09:51:38.748Z,50.71
2023-05-06T09:54:44.528Z,50.11
2023-05-06T09:57:50.127Z,50.54
2023-05-06T10:00:55.814Z,50.94
2023-05-06T10:04:05.473Z,51.42
2023-05-06T10:07:12.505Z,51.51
2023-05-06T10:10:18.273Z,52.41
2023-05-06T10:13:24.656Z,52.10
2023-05-06T10:16:29.472Z,53.37
2023-05-06T10:19:34.493Z,53.54
2023-05-06T10:22:53.661Z,54.28
2023-05-06T10:26:07.494Z,54.19
2023-05-06T10:29:12.293Z,54.28
2023-05-06T10:32:16.061Z,54.50
2023-05-06T10:35:39.051Z,55.79
2023-05-06T10:38:47.349Z,55.95
2023-05-06T10:41:52.688Z,55.34
2023-05-06T10:45:01.072Z,56.06
2023-05-06T10:48:12.763Z,56.08
2023-05-06T10:51:28.257Z,58.44
2023-05-06T10:54:32.098Z,57.16
2023-05-06T10:57:43.349Z,58.64
2023-05-06T11:00:55.759Z,57.62
2023-05-06T11:04:00.641Z,57.97
2023-05-06T11:07:10.558Z,58.97
2023-05-06T11:10:14.063Z,58.80
2023-05-06T11:13:26.242Z,58.72
2023-05-06T11:16:49.336Z,61.30
2023-05-06T11:20:20.597Z,60.81
2023-05-06T11:23:45.272Z,59.30
2023-05-06T11:26:49.260Z,58.89
2023-05-06T11:29:54.070Z,59.02
2023-05-06T11:33:05.685Z,58.99
2023-05-06T11:36:17.187Z,60.48
2023-05-06T11:39:21.030Z,59.45
2023-05-06T11:42:29.942Z,60.37
2023-05-06T11:45:44.008Z,61.71
2023-05-06T11:48:47.416Z,60.16
2023-05-06T11:51:51.634Z,60.41
2023-05-06T11:54:55.893Z,60.71
2023-05-06T11:57:59.950Z,61.44
2023-05-06T12:01:05.785Z,61.61
2023-05-06T12:04:10.029Z,61.23
2023-05-06T12:07:16.296Z,61.70
2023-05-06T12:10:20.851Z,62.52
2023-05-06T12:13:24.478Z,62.89
2023-05-06T12:16:30.317Z,63.26
2023-05-06T12:19:34.147Z,63.05
2023-05-06T12:22:39.040Z,63.25
2023-05-06T12:25:44.618Z,63.42
2023-05-06T12:28:48.624Z,63.81
2023-05-06T12:32:10.356Z,63.48
2023-05-06T12:35:26.719Z,63.32
2023-05-06T12:38:32.209Z,62.18
2023-05-06T12:41:42.817Z,63.97
2023-05-06T12:44:46.236Z,62.99
2023-05-06T12:47:59.417Z,64.85
2023-05-06T12:51:18.630Z,62.92
2023-05-06T12:54:32.456Z,64.00
2023-05-06T12:57:37.094Z,64.17
2023-05-06T13:00:40.934Z,63.91
2023-05-06T13:03:45.852Z,63.81
2023-05-06T13:06:50.882Z,63.67
2023-05-06T13:09:54.265Z,63.85
2023-05-06T13:12:59.361Z,64.35
2023-05-06T13:16:03.098Z,64.46
2023-05-06T13:19:10.913Z,64.46
2023-05-06T13:22:18.842Z,64.66
2023-05-06T13:25:22.827Z,64.40
2023-05-06T13:28:26.863Z,65.12
2023-05-06T13:31:31.432Z,64.74
2023-05-06T13:34:36.792Z,65.29
2023-05-06T13:37:40.495Z,64.53
2023-05-06T13:40:47.740Z,65.10
2023-05-06T13:43:51.365Z,65.89
2023-05-06T13:46:55.088Z,65.59
2023-05-06T13:50:00.018Z,65.55
2023-05-06T13:53:03.723Z,66.24
2023-05-06T13:56:07.663Z,65.91
2023-05-06T13:59:12.701Z,65.09
2023-05-06T14:02:16.936Z,66.00
2023-05-06T14:05:22.192Z,65.72
2023-05-06T14:08:25.893Z,66.06
2023-05-06T14:11:29.599Z,66.12
2023-05-06T14:14:33.060Z,65.99
2023-05-06T14:17:37.131Z,66.08
2023-05-06T14:20:42.207Z,66.04
2023-05-06T14:23:45.871Z,65.85
2023-05-06T14:26:49.248Z,66.08
2023-05-06T14:29:52.928Z,66.26
2023-05-06T14:32:56.771Z,66.32
2023-05-06T14:36:03.461Z,67.00
2023-05-06T14:39:07.539Z,67.01
2023-05-06T14:42:11.376Z,66.68
2023-05-06T14:45:15.900Z,67.19
2023-05-06T14:48:19.657Z,67.35
2023-05-06T14:51:24.679Z,66.83
2023-05-06T14:54:29.329Z,66.89
2023-05-06T14:57:32.750Z,67.46
2023-05-06T15:00:36.451Z,67.09
2023-05-06T15:03:40.226Z,67.53
2023-05-06T15:06:45.394Z,67.13
2023-05-06T15:09:48.848Z,67.41
2023-05-06T15:12:52.492Z,67.75
2023-05-06T15:15:55.973Z,67.16
2023-05-06T15:18:59.618Z,67.56
2023-05-06T15:22:04.569Z,67.76
2023-05-06T15:25:16.623Z,67.45
2023-05-06T15:28:26.242Z,67.26
2023-05-06T15:31:31.950Z,67.92
2023-05-06T15:34:35.953Z,68.07
2023-05-06T15:37:41.014Z,68.06
2023-05-06T15:40:52.092Z,68.92
2023-05-06T15:43:58.260Z,67.52
2023-05-06T15:47:02.262Z,67.24
2023-05-06T15:50:14.135Z,67.76
2023-05-06T15:53:30.185Z,68.05
2023-05-06T15:56:39.360Z,67.59
2023-05-06T15:59:45.082Z,67.64
2023-05-06T16:02:48.945Z,68.12
2023-05-06T16:05:54.843Z,67.60
2023-05-06T16:09:01.003Z,68.35
2023-05-06T16:12:05.039Z,67.75
2023-05-06T16:15:10.336Z,68.21
2023-05-06T16:18:14.012Z,67.85
2023-05-06T16:21:17.741Z,67.49
2023-05-06T16:24:22.650Z,68.40
2023-05-06T16:27:27.478Z,68.46
2023-05-06T16:30:30.972Z,68.61
2023-05-06T16:33:34.618Z,68.98
2023-05-06T16:36:38.212Z,68.92
2023-05-06T16:39:43.280Z,68.66
2023-05-06T16:42:46.806Z,68.64
2023-05-06T16:45:50.484Z,68.90
2023-05-06T16:48:54.763Z,68.59
2023-05-06T16:52:00.469Z,68.65
2023-05-06T16:55:07.323Z,68.93
2023-05-06T16:58:11.089Z,69.12
2023-05-06T17:01:14.517Z,68.35
2023-05-06T17:04:18.258Z,69.20
2023-05-06T17:07:21.800Z,69.56
2023-05-06T17:10:29.365Z,69.02
2023-05-06T17:13:32.759Z,69.44
2023-05-06T17:16:36.500Z,69.12
2023-05-06T17:19:39.903Z,68.89
2023-05-06T17:22:43.562Z,69.01
2023-05-06T17:25:48.533Z,69.75
2023-05-06T17:28:52.397Z,69.73
2023-05-06T17:31:56.038Z,69.78
2023-05-06T17:34:59.712Z,69.42
2023-05-06T17:38:03.162Z,69.21
2023-05-06T17:41:08.304Z,69.67
2023-05-06T17:44:12.000Z,69.73
2023-05-06T17:47:16.625Z,69.62
2023-05-06T17:50:20.287Z,69.73
2023-05-06T17:53:23.999Z,69.88
2023-05-06T17:56:29.079Z,70.36
2023-05-06T17:59:32.736Z,70.13
2023-05-06T18:02:37.881Z,69.77
2023-05-06T18:05:41.657Z,70.64
2023-05-06T18:08:45.597Z,69.90
2023-05-06T18:11:50.870Z,69.98
2023-05-06T18:14:55.344Z,70.08
2023-05-06T18:17:59.111Z,70.54
2023-05-06T18:21:02.848Z,70.32
2023-05-06T18:24:16.145Z,70.37
2023-05-06T18:27:21.918Z,70.43
2023-05-06T18:30:26.248Z,70.06
2023-05-06T18:33:29.822Z,71.12
2023-05-06T18:36:34.977Z,70.26
2023-05-06T18:39:42.799Z,71.32
2023-05-06T18:42:48.495Z,70.90
2023-05-06T18:45:53.828Z,71.77
2023-05-06T18:48:58.001Z,71.08
2023-05-06T18:52:02.460Z,71.35
2023-05-06T18:55:07.484Z,71.21
2023-05-06T18:58:12.470Z,70.70
2023-05-06T19:01:17.351Z,71.17
2023-05-06T19:04:20.858Z,71.05
2023-05-06T19:07:24.586Z,70.83
2023-05-06T19:10:28.318Z,71.20
2023-05-06T19:13:33.426Z,71.02
2023-05-06T19:16:37.087Z,71.84
2023-05-06T19:19:40.761Z,71.37
2023-05-06T19:22:44.492Z,71.22
2023-05-06T19:25:48.336Z,71.17
2023-05-06T19:28:53.559Z,72.05
2023-05-06T19:31:57.319Z,71.70
2023-05-06T19:35:07.877Z,71.36
2023-05-06T19:38:12.109Z,70.71
2023-05-06T19:41:15.676Z,71.12
2023-05-06T19:44:20.763Z,71.59
2023-05-06T19:47:24.327Z,71.43
2023-05-06T19:50:28.990Z,71.30
2023-05-06T19:53:32.472Z,71.23
2023-05-06T19:56:36.301Z,71.81
2023-05-06T19:59:41.431Z,71.97
2023-05-06T20:02:45.418Z,71.71
2023-05-06T20:05:48.941Z,71.80
2023-05-06T20:08:52.599Z,71.52
2023-05-06T20:11:56.187Z,71.80
2023-05-06T20:15:01.239Z,72.09
2023-05-06T20:18:05.532Z,71.84
2023-05-06T20:21:09.283Z,72.16
2023-05-06T20:24:13.166Z,72.06
2023-05-06T20:27:16.915Z,72.15
2023-05-06T20:30:22.606Z,72.46
2023-05-06T20:33:26.316Z,72.13
2023-05-06T20:36:29.671Z,71.88
2023-05-06T20:39:33.997Z,71.88
2023-05-06T20:42:37.920Z,71.82
2023-05-06T20:45:43.068Z,72.40
2023-05-06T20:48:46.524Z,71.85
2023-05-06T20:51:50.174Z,72.04
2023-05-06T20:54:53.863Z,72.20
2023-05-06T20:57:57.536Z,71.94
2023-05-06T21:01:04.266Z,72.14
2023-05-06T21:04:07.957Z,72.13
2023-05-06T21:07:11.448Z,72.16
2023-05-06T21:10:15.191Z,72.41
2023-05-06T21:13:18.718Z,71.70
2023-05-06T21:16:23.889Z,72.07
2023-05-06T21:19:27.536Z,71.90
2023-05-06T21:22:31.203Z,72.13
2023-05-06T21:25:34.769Z,71.98
2023-05-06T21:28:38.727Z,72.40
2023-05-06T21:31:43.652Z,72.18
2023-05-06T21:34:47.289Z,72.00
2023-05-06T21:37:51.005Z,72.06
2023-05-06T21:40:55.736Z,72.12
2023-05-06T21:43:59.100Z,71.99
2023-05-06T21:47:04.138Z,72.41
2023-05-06T21:50:10.811Z,72.53
2023-05-06T21:53:14.415Z,72.32
2023-05-06T21:56:18.048Z,72.48
2023-05-06T21:59:21.727Z,72.06
2023-05-06T22:02:26.931Z,72.21
2023-05-06T22:05:30.631Z,72.31
2023-05-06T22:08:34.150Z,72.63
2023-05-06T22:11:38.649Z,72.21
2023-05-06T22:14:42.483Z,72.11
2023-05-06T22:17:48.085Z,73.12
2023-05-06T22:20:52.476Z,72.76
2023-05-06T22:23:56.122Z,71.98
2023-05-06T22:26:59.835Z,72.53
2023-05-06T22:30:03.701Z,72.45
2023-05-06T22:33:08.650Z,72.51
2023-05-06T22:36:12.334Z,72.32
2023-05-06T22:39:15.728Z,72.56
2023-05-06T22:42:20.450Z,72.48
2023-05-06T22:45:24.024Z,72.84
2023-05-06T22:48:29.140Z,72.64
2023-05-06T22:51:33.337Z,72.90
2023-05-06T22:54:36.996Z,72.27
2023-05-06T22:57:40.715Z,72.72
2023-05-06T23:00:47.763Z,72.69
2023-05-06T23:03:52.921Z,72.99
2023-05-06T23:06:57.412Z,73.04
2023-05-06T23:10:01.208Z,72.76
2023-05-06T23:13:05.379Z,72.45
2023-05-06T23:16:10.269Z,72.93
2023-05-06T23:19:15.408Z,72.54
2023-05-06T23:22:19.199Z,72.74
2023-05-06T23:25:22.854Z,73.25
2023-05-06T23:28:26.386Z,72.81
2023-05-06T23:31:30.124Z,72.80
2023-05-06T23:34:35.049Z,72.64
2023-05-06T23:37:38.896Z,73.14
2023-05-06T23:40:42.672Z,73.04
2023-05-06T23:43:46.452Z,72.72
2023-05-06T23:46:50.081Z,72.71
2023-05-06T23:49:55.328Z,72.22
2023-05-06T23:52:58.708Z,72.34
2023-05-06T23:56:02.653Z,73.20
2023-05-06T23:59:06.186Z,73.23
